aviador You're here:

KEUF Decoded Metar

in _UNIDENTIFIED
Report Time2018-01-19 10:58:00
UTC Time2018-01-19 11:26:00
Flight Rules vfr VFR
WindCalm
Visibility9999 m
Phenomena:N/A
Clouds:N/A
Expected CloudBase > 400 ft AGL from Temp-Dew spread
CeilingNone
Temp-6°C (ISA -20)
Dew Point-7°C (93% RH)
AAT-8.8°C
QNH1028 hPa
Density Alt-2,707 ft
Elevation285 ft
Report Wrong Elevation
Raw Report
METAR KEUF 191058Z AUTO 00000KT 10SM CLR M06/M07 A3035 RMK AO2 SLP280
I1002 T10611072=

Extra information for KEUF:More info

Metar Taf Metar & Taf Last 4 Metars F.Rules Stats Wind Profile Meteogram Temp Stats Metar ALERT Operation Metar Decoded Social comments